createdAt,value
2023-03-13T00:00:18.305Z,76.90
2023-03-13T00:03:22.474Z,75.40
2023-03-13T00:06:28.811Z,75.10
2023-03-13T00:09:31.984Z,74.90
2023-03-13T00:12:34.906Z,74.80
2023-03-13T00:15:37.930Z,74.70
2023-03-13T00:18:45.787Z,74.70
2023-03-13T00:21:50.077Z,74.80
2023-03-13T00:24:52.948Z,74.20
2023-03-13T00:27:55.895Z,74.60
2023-03-13T00:31:03.115Z,74.00
2023-03-13T00:34:06.059Z,74.20
2023-03-13T00:37:10.479Z,74.00
2023-03-13T00:40:13.764Z,73.80
2023-03-13T00:43:16.678Z,73.70
2023-03-13T00:46:22.494Z,73.50
2023-03-13T00:49:25.731Z,73.50
2023-03-13T00:52:30.039Z,73.60
2023-03-13T00:55:33.219Z,73.30
2023-03-13T00:58:38.186Z,73.20
2023-03-13T01:01:41.619Z,72.00
2023-03-13T01:04:44.583Z,73.00
2023-03-13T01:07:48.898Z,72.80
2023-03-13T01:10:52.024Z,73.00
2023-03-13T01:13:56.861Z,72.80
2023-03-13T01:16:59.894Z,72.90
2023-03-13T01:20:05.614Z,72.80
2023-03-13T01:23:10.067Z,73.10
2023-03-13T01:26:13.544Z,72.10
2023-03-13T01:29:16.712Z,72.00
2023-03-13T01:32:19.995Z,73.30
2023-03-13T01:35:23.031Z,73.90
2023-03-13T01:38:27.399Z,73.30
2023-03-13T01:41:32.175Z,73.50
2023-03-13T01:44:51.960Z,72.70
2023-03-13T01:47:55.048Z,73.40
2023-03-13T01:51:01.635Z,73.30
2023-03-13T01:54:10.963Z,72.40
2023-03-13T01:57:19.906Z,74.00
2023-03-13T02:00:26.052Z,73.20
2023-03-13T02:03:29.785Z,74.10
2023-03-13T02:06:34.138Z,72.50
2023-03-13T02:09:41.489Z,73.20
2023-03-13T02:12:45.494Z,73.20
2023-03-13T02:15:49.218Z,72.50
2023-03-13T02:18:52.173Z,72.40
2023-03-13T02:21:59.121Z,72.20
2023-03-13T02:25:10.616Z,73.00
2023-03-13T02:28:19.964Z,73.00
2023-03-13T02:31:23.032Z,72.90
2023-03-13T02:34:30.454Z,73.20
2023-03-13T02:37:34.529Z,73.10
2023-03-13T02:40:40.403Z,73.10
2023-03-13T02:43:44.821Z,73.00
2023-03-13T02:46:50.313Z,72.90
2023-03-13T02:49:53.352Z,72.70
2023-03-13T02:52:59.782Z,72.90
2023-03-13T02:56:03.104Z,72.80
2023-03-13T02:59:07.872Z,72.80
2023-03-13T03:02:10.975Z,72.70
2023-03-13T03:05:14.449Z,73.00
2023-03-13T03:08:17.385Z,72.70
2023-03-13T03:11:20.349Z,72.70
2023-03-13T03:14:24.680Z,72.60
2023-03-13T03:17:27.715Z,72.40
2023-03-13T03:20:30.824Z,72.60
2023-03-13T03:23:34.688Z,72.80
2023-03-13T03:26:37.727Z,73.50
2023-03-13T03:29:41.996Z,72.70
2023-03-13T03:32:45.699Z,72.20
2023-03-13T03:35:48.880Z,73.10
2023-03-13T03:38:52.100Z,72.40
2023-03-13T03:41:55.037Z,72.80
2023-03-13T03:44:59.325Z,72.40
2023-03-13T03:48:02.195Z,72.40
2023-03-13T03:51:06.064Z,74.20
2023-03-13T03:54:09.018Z,73.20
2023-03-13T03:57:12.086Z,72.70
2023-03-13T04:00:18.982Z,72.70
2023-03-13T04:03:22.047Z,73.50
2023-03-13T04:06:25.086Z,73.10
2023-03-13T04:09:30.986Z,73.10
2023-03-13T04:12:34.860Z,72.50
2023-03-13T04:15:40.637Z,71.90
2023-03-13T04:18:44.113Z,73.10
2023-03-13T04:21:47.309Z,73.00
2023-03-13T04:24:50.365Z,73.60
2023-03-13T04:27:53.388Z,73.00
2023-03-13T04:30:58.263Z,72.50
2023-03-13T04:34:01.422Z,72.40
2023-03-13T04:37:04.468Z,72.90
2023-03-13T04:40:10.478Z,72.60
2023-03-13T04:43:13.808Z,72.40
2023-03-13T04:46:18.671Z,72.90
2023-03-13T04:49:21.644Z,72.50
2023-03-13T04:52:25.625Z,72.00
2023-03-13T04:55:28.675Z,72.20
2023-03-13T04:58:31.813Z,72.00
2023-03-13T05:01:36.282Z,72.70
2023-03-13T05:04:39.612Z,72.70
2023-03-13T05:07:42.472Z,72.30
2023-03-13T05:10:45.410Z,71.60
2023-03-13T05:13:48.492Z,72.70
2023-03-13T05:16:52.786Z,72.80
2023-03-13T05:19:55.605Z,72.80
2023-03-13T05:22:58.679Z,73.60
2023-03-13T05:26:02.332Z,73.90
2023-03-13T05:29:05.275Z,73.20
2023-03-13T05:32:09.751Z,73.70
2023-03-13T05:35:12.796Z,74.00
2023-03-13T05:38:16.254Z,74.30
2023-03-13T05:41:19.197Z,74.10
2023-03-13T05:44:22.066Z,75.20
2023-03-13T05:47:26.334Z,74.00
2023-03-13T05:50:29.508Z,74.10
2023-03-13T05:53:32.368Z,75.10
2023-03-13T05:56:35.222Z,74.30
2023-03-13T05:59:38.081Z,74.60
2023-03-13T06:02:42.600Z,74.60
2023-03-13T06:05:45.642Z,73.50
2023-03-13T06:08:48.539Z,75.00
2023-03-13T06:11:51.465Z,74.80
2023-03-13T06:14:54.403Z,75.00
2023-03-13T06:17:59.088Z,75.00
2023-03-13T06:21:03.082Z,75.30
2023-03-13T06:24:06.837Z,75.20
2023-03-13T06:27:09.738Z,74.00
2023-03-13T06:30:13.641Z,75.30
2023-03-13T06:33:18.115Z,75.70
2023-03-13T06:36:21.863Z,75.50
2023-03-13T06:39:24.855Z,75.90
2023-03-13T06:42:27.836Z,76.20
2023-03-13T06:45:31.042Z,76.80
2023-03-13T06:48:35.875Z,75.70
2023-03-13T06:51:38.685Z,75.80
2023-03-13T06:54:41.563Z,75.90
2023-03-13T06:57:44.436Z,76.40
2023-03-13T07:00:47.386Z,76.10
2023-03-13T07:03:52.762Z,76.70
2023-03-13T07:06:55.847Z,76.10
2023-03-13T07:09:59.000Z,77.00
2023-03-13T07:13:02.028Z,76.10
2023-03-13T07:16:06.765Z,75.90
2023-03-13T07:19:11.285Z,76.10
2023-03-13T07:22:14.186Z,76.10
2023-03-13T07:25:17.545Z,76.20
2023-03-13T07:28:20.437Z,76.70
2023-03-13T07:31:24.863Z,75.70
2023-03-13T07:34:29.532Z,76.60
2023-03-13T07:37:32.654Z,76.30
2023-03-13T07:40:35.582Z,77.40
2023-03-13T07:43:38.490Z,76.10
2023-03-13T07:46:41.980Z,76.30
2023-03-13T07:49:46.836Z,76.40
2023-03-13T07:52:49.871Z,76.20
2023-03-13T07:55:54.494Z,75.60
2023-03-13T07:58:57.552Z,76.50
2023-03-13T08:02:00.559Z,77.40
2023-03-13T08:05:05.399Z,76.90
2023-03-13T08:08:08.842Z,76.50
2023-03-13T08:11:13.699Z,75.90
2023-03-13T08:14:16.740Z,77.80
2023-03-13T08:17:19.701Z,76.40
2023-03-13T08:20:24.084Z,77.00
2023-03-13T08:23:26.987Z,77.20
2023-03-13T08:26:31.678Z,76.60
2023-03-13T08:29:34.732Z,76.70
2023-03-13T08:32:38.071Z,76.80
2023-03-13T08:35:42.565Z,76.80
2023-03-13T08:38:46.714Z,77.60
2023-03-13T08:41:49.837Z,76.70
2023-03-13T08:44:52.765Z,77.20
2023-03-13T08:47:55.761Z,77.80
2023-03-13T08:51:07.920Z,76.80
2023-03-13T08:54:11.335Z,76.70
2023-03-13T08:57:15.417Z,77.70
2023-03-13T09:00:19.938Z,77.00
2023-03-13T09:03:23.191Z,77.30
2023-03-13T09:06:27.453Z,77.30
2023-03-13T09:09:30.359Z,77.60
2023-03-13T09:12:33.382Z,77.50
2023-03-13T09:15:36.657Z,77.60
2023-03-13T09:18:39.946Z,77.80
2023-03-13T09:21:45.136Z,78.10
2023-03-13T09:24:48.086Z,78.40
2023-03-13T09:27:51.000Z,78.50
2023-03-13T09:30:54.521Z,78.30
2023-03-13T09:33:57.686Z,78.50
2023-03-13T09:37:01.874Z,78.30
2023-03-13T09:40:05.918Z,77.30
2023-03-13T09:43:25.997Z,78.30
2023-03-13T09:46:37.059Z,77.50
2023-03-13T09:49:43.318Z,78.30
2023-03-13T09:52:52.074Z,77.30
2023-03-13T09:55:55.838Z,77.50
2023-03-13T09:59:03.302Z,79.30
2023-03-13T10:02:20.445Z,78.20
2023-03-13T10:05:26.548Z,78.30
2023-03-13T10:08:33.164Z,77.50
2023-03-13T10:11:42.566Z,77.70
2023-03-13T10:14:54.815Z,77.50
2023-03-13T10:18:00.216Z,78.20
2023-03-13T10:21:15.044Z,78.00
2023-03-13T10:24:28.433Z,77.90
2023-03-13T10:27:31.582Z,78.30
2023-03-13T10:30:36.331Z,77.70
2023-03-13T10:33:39.606Z,79.10
2023-03-13T10:36:44.759Z,80.40
2023-03-13T10:39:49.074Z,79.30
2023-03-13T10:42:53.556Z,79.50
2023-03-13T10:45:56.833Z,80.20
2023-03-13T10:49:02.706Z,80.10
2023-03-13T10:52:08.498Z,81.20
2023-03-13T10:55:14.734Z,80.80
2023-03-13T10:58:21.988Z,80.40
2023-03-13T11:01:26.572Z,79.90
2023-03-13T11:04:34.382Z,80.10
2023-03-13T11:07:40.481Z,80.20
2023-03-13T11:10:55.623Z,80.20
2023-03-13T11:14:10.039Z,79.00
2023-03-13T11:17:22.349Z,80.50
2023-03-13T11:20:28.274Z,80.60
2023-03-13T11:23:35.277Z,79.00
2023-03-13T11:26:55.098Z,78.90
2023-03-13T11:30:17.233Z,78.90
2023-03-13T11:33:29.969Z,78.40
2023-03-13T11:36:37.480Z,78.60
2023-03-13T11:39:50.818Z,78.30
2023-03-13T11:43:25.396Z,78.50
2023-03-13T11:46:39.750Z,78.30
2023-03-13T11:49:59.811Z,78.30
2023-03-13T11:53:23.147Z,78.80
2023-03-13T11:56:31.445Z,76.60
2023-03-13T11:59:46.014Z,78.50
2023-03-13T12:02:52.692Z,78.00
2023-03-13T12:05:58.072Z,77.80
2023-03-13T12:09:11.985Z,77.70
2023-03-13T12:12:22.204Z,77.60
2023-03-13T12:15:30.834Z,77.90
2023-03-13T12:18:38.635Z,77.80
2023-03-13T12:21:47.392Z,77.50
2023-03-13T12:24:56.243Z,77.80
2023-03-13T12:28:11.541Z,77.80
2023-03-13T12:31:22.817Z,77.80
2023-03-13T12:34:31.956Z,77.80
2023-03-13T12:37:42.828Z,77.50
2023-03-13T12:40:52.923Z,76.00
2023-03-13T12:44:08.390Z,76.90
2023-03-13T12:47:18.736Z,77.40
2023-03-13T12:50:33.930Z,77.00
2023-03-13T12:54:13.943Z,75.70
2023-03-13T12:57:28.814Z,76.30
2023-03-13T13:00:34.139Z,76.30
2023-03-13T13:03:40.328Z,75.80
2023-03-13T13:06:57.321Z,75.50
2023-03-13T13:10:17.752Z,75.20
2023-03-13T13:13:31.927Z,75.60
2023-03-13T13:16:35.162Z,75.90
2023-03-13T13:19:47.804Z,74.80
2023-03-13T13:22:52.697Z,75.40
2023-03-13T13:25:57.343Z,73.80
2023-03-13T13:29:01.563Z,73.10
2023-03-13T13:32:06.747Z,73.30
2023-03-13T13:35:26.686Z,72.90
2023-03-13T13:38:37.067Z,71.20
2023-03-13T13:41:40.344Z,71.40
2023-03-13T13:44:59.041Z,71.20
2023-03-13T13:48:28.218Z,71.20
2023-03-13T13:51:32.723Z,71.20
2023-03-13T13:54:56.027Z,70.00
2023-03-13T13:58:05.828Z,70.80
2023-03-13T14:01:17.157Z,70.70
2023-03-13T14:04:28.146Z,70.10
2023-03-13T14:07:44.159Z,70.80
2023-03-13T14:10:52.211Z,70.10
2023-03-13T14:14:10.420Z,69.50
2023-03-13T14:17:13.685Z,69.40
2023-03-13T14:20:31.925Z,68.90
2023-03-13T14:23:42.565Z,68.20
2023-03-13T14:26:46.303Z,67.90
2023-03-13T14:30:02.005Z,68.10
2023-03-13T14:33:05.420Z,68.10
2023-03-13T14:36:10.126Z,67.80
2023-03-13T14:39:19.665Z,67.30
2023-03-13T14:42:23.704Z,66.80
2023-03-13T14:45:30.328Z,67.50
2023-03-13T14:48:35.275Z,66.10
2023-03-13T14:51:41.255Z,66.90
2023-03-13T14:54:55.887Z,65.80
2023-03-13T14:58:01.106Z,65.30
2023-03-13T15:01:14.693Z,64.70
2023-03-13T15:04:17.652Z,64.60
2023-03-13T15:07:21.280Z,65.60
2023-03-13T15:10:28.513Z,65.00
2023-03-13T15:13:37.038Z,64.10
2023-03-13T15:16:40.324Z,64.20
2023-03-13T15:19:44.094Z,63.80
2023-03-13T15:22:47.649Z,63.60
2023-03-13T15:25:52.445Z,63.50
2023-03-13T15:28:58.913Z,63.20
2023-03-13T15:32:04.154Z,62.50
2023-03-13T15:35:25.498Z,63.40
2023-03-13T15:38:29.029Z,63.50
2023-03-13T15:41:34.487Z,62.90
2023-03-13T15:44:38.068Z,62.40
2023-03-13T15:47:41.922Z,62.00
2023-03-13T15:50:45.523Z,62.30
2023-03-13T15:53:49.441Z,62.40
2023-03-13T15:56:54.263Z,61.90
2023-03-13T15:59:57.166Z,61.90
2023-03-13T16:03:01.294Z,62.00
2023-03-13T16:06:14.703Z,62.20
2023-03-13T16:09:18.254Z,62.60
2023-03-13T16:12:22.701Z,61.80
2023-03-13T16:15:26.141Z,62.20
2023-03-13T16:18:30.491Z,62.10
2023-03-13T16:21:36.532Z,62.20
2023-03-13T16:24:40.228Z,62.10
2023-03-13T16:27:45.190Z,62.50
2023-03-13T16:30:48.848Z,62.50
2023-03-13T16:33:54.149Z,63.00
2023-03-13T16:36:57.395Z,63.00
2023-03-13T16:40:01.308Z,62.90
2023-03-13T16:43:05.692Z,63.30
2023-03-13T16:46:14.987Z,63.50
2023-03-13T16:49:20.756Z,64.20
2023-03-13T16:52:23.830Z,63.90
2023-03-13T16:55:28.633Z,64.10
2023-03-13T16:58:34.216Z,64.30
2023-03-13T17:01:37.589Z,65.60
2023-03-13T17:04:44.976Z,64.70
2023-03-13T17:07:51.612Z,64.70
2023-03-13T17:10:55.222Z,64.80
2023-03-13T17:14:00.209Z,63.70
2023-03-13T17:17:04.842Z,65.00
2023-03-13T17:20:15.039Z,66.50
2023-03-13T17:23:26.116Z,65.50
2023-03-13T17:26:32.449Z,65.90
2023-03-13T17:29:38.596Z,65.90
2023-03-13T17:32:41.709Z,66.10
2023-03-13T17:35:46.931Z,66.60
2023-03-13T17:38:52.459Z,66.70
2023-03-13T17:41:57.591Z,67.00
2023-03-13T17:45:02.350Z,66.40
2023-03-13T17:48:07.288Z,67.40
2023-03-13T17:51:15.983Z,67.30
2023-03-13T17:54:19.611Z,67.30
2023-03-13T17:57:24.664Z,67.70
2023-03-13T18:00:31.867Z,68.10
2023-03-13T18:03:35.537Z,67.90
2023-03-13T18:06:42.835Z,67.90
2023-03-13T18:09:47.545Z,68.10
2023-03-13T18:12:52.787Z,68.40
2023-03-13T18:15:58.058Z,68.20
2023-03-13T18:19:01.463Z,68.30
2023-03-13T18:22:05.686Z,68.60
2023-03-13T18:25:10.018Z,68.90
2023-03-13T18:28:13.318Z,68.80
2023-03-13T18:31:18.765Z,69.80
2023-03-13T18:34:23.848Z,68.90
2023-03-13T18:37:29.305Z,69.10
2023-03-13T18:40:34.343Z,69.00
2023-03-13T18:43:37.972Z,69.00
2023-03-13T18:46:43.416Z,68.90
2023-03-13T18:49:47.065Z,68.30
2023-03-13T18:52:50.074Z,68.10
2023-03-13T18:55:53.163Z,68.50
2023-03-13T18:58:57.331Z,68.10
2023-03-13T19:02:01.714Z,67.90
2023-03-13T19:05:05.032Z,67.50
2023-03-13T19:08:10.248Z,68.80
2023-03-13T19:11:14.559Z,67.20
2023-03-13T19:14:17.691Z,68.30
2023-03-13T19:17:26.938Z,66.90
2023-03-13T19:20:30.147Z,66.70
2023-03-13T19:23:33.852Z,66.00
2023-03-13T19:26:40.166Z,66.30
2023-03-13T19:29:43.574Z,66.10
2023-03-13T19:32:48.143Z,66.00
2023-03-13T19:35:52.199Z,65.90
2023-03-13T19:38:55.302Z,65.60
2023-03-13T19:41:58.710Z,65.40
2023-03-13T19:45:02.423Z,65.50
2023-03-13T19:48:07.059Z,65.50
2023-03-13T19:51:10.030Z,66.10
2023-03-13T19:54:13.522Z,66.30
2023-03-13T19:57:17.840Z,65.60
2023-03-13T20:00:23.041Z,65.60
2023-03-13T20:03:28.792Z,65.50
2023-03-13T20:06:33.401Z,65.50
2023-03-13T20:09:37.488Z,65.80
2023-03-13T20:12:41.624Z,65.40
2023-03-13T20:15:44.681Z,65.10
2023-03-13T20:18:50.599Z,65.30
2023-03-13T20:21:53.967Z,65.80
2023-03-13T20:24:56.843Z,64.70
2023-03-13T20:27:59.685Z,64.80
2023-03-13T20:31:02.816Z,64.30
2023-03-13T20:34:07.219Z,64.70
2023-03-13T20:37:10.368Z,64.70
2023-03-13T20:40:14.227Z,64.50
2023-03-13T20:43:17.654Z,64.30
2023-03-13T20:46:20.857Z,64.40
2023-03-13T20:49:25.218Z,63.60
2023-03-13T20:52:29.050Z,64.10
2023-03-13T20:55:32.690Z,64.10
2023-03-13T20:58:35.781Z,64.00
2023-03-13T21:01:38.829Z,64.50
2023-03-13T21:04:43.197Z,64.10
2023-03-13T21:07:46.288Z,64.10
2023-03-13T21:10:49.227Z,64.10
2023-03-13T21:13:52.698Z,64.80
2023-03-13T21:16:55.665Z,64.30
2023-03-13T21:20:00.257Z,64.30
2023-03-13T21:23:03.308Z,64.30
2023-03-13T21:26:06.805Z,64.40
2023-03-13T21:29:10.822Z,64.70
2023-03-13T21:32:14.476Z,64.10
2023-03-13T21:35:18.933Z,64.60
2023-03-13T21:38:21.927Z,64.90
2023-03-13T21:41:24.866Z,64.60
2023-03-13T21:44:27.896Z,64.70
2023-03-13T21:47:31.805Z,65.10
2023-03-13T21:50:36.210Z,64.70
2023-03-13T21:53:40.610Z,64.70
2023-03-13T21:56:43.543Z,64.70
2023-03-13T21:59:46.500Z,64.70
2023-03-13T22:02:49.481Z,64.70
2023-03-13T22:05:53.691Z,64.60
2023-03-13T22:08:56.764Z,64.70
2023-03-13T22:11:59.809Z,64.50
2023-03-13T22:15:02.810Z,64.60
2023-03-13T22:18:05.984Z,64.60
2023-03-13T22:21:10.792Z,64.60
2023-03-13T22:24:13.801Z,64.50
2023-03-13T22:27:17.947Z,64.40
2023-03-13T22:30:21.255Z,64.40
2023-03-13T22:33:24.077Z,64.90
2023-03-13T22:36:28.332Z,64.20
2023-03-13T22:39:31.304Z,64.50
2023-03-13T22:42:34.379Z,64.60
2023-03-13T22:45:37.452Z,64.80
2023-03-13T22:48:41.155Z,64.70
2023-03-13T22:51:45.424Z,64.90
2023-03-13T22:54:48.382Z,64.90
2023-03-13T22:57:51.303Z,65.00
2023-03-13T23:00:54.718Z,65.10
2023-03-13T23:03:57.964Z,65.20
2023-03-13T23:07:02.309Z,65.40
2023-03-13T23:10:06.070Z,65.30
2023-03-13T23:13:09.013Z,65.40
2023-03-13T23:16:13.303Z,65.30
2023-03-13T23:19:16.212Z,65.40
2023-03-13T23:22:21.908Z,65.40
2023-03-13T23:25:25.260Z,66.30
2023-03-13T23:28:28.170Z,65.10
2023-03-13T23:31:31.314Z,65.00
2023-03-13T23:34:36.354Z,65.20
2023-03-13T23:37:41.016Z,65.60
2023-03-13T23:40:43.952Z,65.00
2023-03-13T23:43:46.919Z,64.90
2023-03-13T23:46:49.858Z,65.20
2023-03-13T23:49:52.964Z,65.00
2023-03-13T23:52:57.368Z,63.50
2023-03-13T23:56:00.365Z,64.40
2023-03-13T23:59:03.316Z,64.10
